Time;durP1;ratioP1;P1;durP2;ratioP2;P2;SDS_P1;SDS_P2;PMS_P1;PMS_P2;Temp;Humidity;BMP_temperature;BMP_pressure;BME280_temperature;BME280_humidity;BME280_pressure;Samples;Min_cycle;Max_cycle;Signal;HPM_P1;HPM_P2
2021/01/23 00:01:05;;;;;;;;;;;0.90;99.90;;;;;;5076570;28;19975;-76
2021/01/23 00:03:31;;;;;;;;;;;0.90;99.90;;;;;;5088339;28;19908;-76
2021/01/23 00:05:56;;;;;;;;;;;0.90;99.90;;;;;;5092755;28;19912;-76
2021/01/23 00:08:22;;;;;;;;;;;0.90;99.90;;;;;;5091782;28;20342;-76
2021/01/23 00:10:47;;;;;;;;;;;0.90;99.90;;;;;;5079183;28;19914;-76
2021/01/23 00:13:13;;;;;;;;;;;0.90;99.90;;;;;;5093092;28;19912;-76
2021/01/23 00:15:38;;;;;;;;;;;0.90;99.90;;;;;;5088017;28;20007;-76
2021/01/23 00:18:04;;;;;;;;;;;0.80;99.90;;;;;;5069861;28;19999;-76
2021/01/23 00:20:29;;;;;;;;;;;0.90;99.90;;;;;;5070613;28;19918;-76
2021/01/23 00:22:54;;;;;;;;;;;0.90;99.90;;;;;;5070291;28;19909;-77
2021/01/23 00:25:20;;;;;;;;;;;0.90;99.90;;;;;;5076167;28;19913;-76
2021/01/23 00:27:45;;;;;;;;;;;0.80;99.90;;;;;;5090521;28;19908;-76
2021/01/23 00:30:11;;;;;;;;;;;0.80;99.90;;;;;;5073417;28;19912;-77
2021/01/23 00:32:37;;;;;;;;;;;0.80;99.90;;;;;;5073131;28;19908;-77
2021/01/23 00:35:03;;;;;;;;;;;0.80;99.90;;;;;;5073550;28;20261;-77
2021/01/23 00:37:28;;;;;;;;;;;0.80;99.90;;;;;;5071560;28;19908;-76
2021/01/23 00:39:54;;;;;;;;;;;0.90;99.90;;;;;;5071289;28;19909;-77
2021/01/23 00:42:19;;;;;;;;;;;0.90;99.90;;;;;;5084440;28;20373;-76
2021/01/23 00:44:45;;;;;;;;;;;0.90;99.90;;;;;;5074648;28;20020;-77
2021/01/23 00:47:10;;;;;;;;;;;0.80;99.90;;;;;;5072444;28;19999;-76
2021/01/23 00:49:35;;;;;;;;;;;0.90;99.90;;;;;;5072860;28;19908;-76
2021/01/23 00:52:01;;;;;;;;;;;0.90;99.90;;;;;;5072920;28;19908;-76
2021/01/23 00:54:26;;;;;;;;;;;0.90;99.90;;;;;;5072821;28;19909;-77
2021/01/23 00:56:52;;;;;;;;;;;0.90;99.90;;;;;;5078999;28;20306;-77
2021/01/23 00:59:17;;;;;;;;;;;0.90;99.90;;;;;;5072599;28;20011;-77
2021/01/23 01:01:43;;;;;;;;;;;0.90;99.90;;;;;;5071156;28;19916;-77
2021/01/23 01:04:08;;;;;;;;;;;1.00;99.90;;;;;;5072646;28;19912;-77
2021/01/23 01:06:34;;;;;;;;;;;1.00;99.90;;;;;;5072191;28;19912;-77
2021/01/23 01:08:59;;;;;;;;;;;1.00;99.90;;;;;;5085888;28;20493;-76
2021/01/23 01:11:25;;;;;;;;;;;0.90;99.90;;;;;;5076075;28;19916;-77
2021/01/23 01:13:50;;;;;;;;;;;1.00;99.90;;;;;;5072589;28;20053;-77
2021/01/23 01:16:16;;;;;;;;;;;0.90;99.90;;;;;;5070585;28;20095;-77
2021/01/23 01:18:43;;;;;;;;;;;1.00;99.90;;;;;;5072283;28;19916;-76
2021/01/23 01:21:08;;;;;;;;;;;1.00;99.90;;;;;;5072062;28;19908;-76
2021/01/23 01:23:34;;;;;;;;;;;1.00;99.90;;;;;;5072286;28;19995;-76
2021/01/23 01:26:00;;;;;;;;;;;1.00;99.90;;;;;;5070549;28;19917;-76
2021/01/23 01:28:25;;;;;;;;;;;1.00;99.90;;;;;;5071997;28;19915;-76
2021/01/23 01:30:51;;;;;;;;;;;1.00;99.90;;;;;;5071846;28;19969;-76
2021/01/23 01:33:16;;;;;;;;;;;1.00;99.90;;;;;;5072205;28;19948;-76
2021/01/23 01:35:42;;;;;;;;;;;1.00;99.90;;;;;;5070643;28;19995;-76
2021/01/23 01:38:08;;;;;;;;;;;1.00;99.90;;;;;;5071762;28;19908;-76
2021/01/23 01:40:33;;;;;;;;;;;1.00;99.90;;;;;;5085851;28;19908;-76
2021/01/23 01:42:58;;;;;;;;;;;1.00;99.90;;;;;;5072464;28;20346;-76
2021/01/23 01:45:24;;;;;;;;;;;1.10;99.90;;;;;;5071421;28;19973;-76
2021/01/23 01:47:50;;;;;;;;;;;1.10;99.90;;;;;;5070262;28;19995;-76
2021/01/23 01:50:15;;;;;;;;;;;1.10;99.90;;;;;;5070608;28;20007;-76
2021/01/23 01:52:41;;;;;;;;;;;1.10;99.90;;;;;;5070520;28;20012;-76
2021/01/23 01:55:07;;;;;;;;;;;1.20;99.90;;;;;;5071793;28;20007;-76
2021/01/23 01:57:32;;;;;;;;;;;1.20;99.90;;;;;;5071384;28;19932;-76
2021/01/23 01:59:58;;;;;;;;;;;1.20;99.90;;;;;;5070259;28;19958;-76
2021/01/23 02:02:26;;;;;;;;;;;1.10;99.90;;;;;;5071682;28;20391;-76
2021/01/23 02:05:10;;;;;;;;;;;1.10;99.90;;;;;;5071681;28;19912;-76
2021/01/23 02:07:45;;;;;;;;;;;1.20;99.90;;;;;;5089783;28;19962;-76
2021/01/23 02:10:25;;;;;;;;;;;1.10;99.90;;;;;;5076230;28;19913;-76
2021/01/23 02:12:57;;;;;;;;;;;1.10;99.90;;;;;;5087101;28;19916;-76
2021/01/23 02:15:25;;;;;;;;;;;1.10;99.90;;;;;;5090697;28;19930;-76
2021/01/23 02:18:03;;;;;;;;;;;1.10;99.90;;;;;;5090416;28;19908;-77
2021/01/23 02:20:37;;;;;;;;;;;1.10;99.90;;;;;;5090753;28;19955;-77
2021/01/23 02:23:16;;;;;;;;;;;1.20;99.90;;;;;;5089505;28;20258;-77
2021/01/23 02:25:57;;;;;;;;;;;1.20;99.90;;;;;;5089023;28;19966;-76
2021/01/23 02:28:32;;;;;;;;;;;1.20;99.90;;;;;;5090530;28;20318;-77
2021/01/23 02:31:00;;;;;;;;;;;1.30;99.90;;;;;;5089167;28;19916;-77
2021/01/23 02:33:28;;;;;;;;;;;1.30;99.90;;;;;;5091812;28;20003;-77
2021/01/23 02:35:53;;;;;;;;;;;1.20;99.90;;;;;;5094342;28;19944;-77
2021/01/23 02:38:18;;;;;;;;;;;1.30;99.90;;;;;;5091214;28;19963;-76
2021/01/23 02:40:44;;;;;;;;;;;1.30;99.90;;;;;;5082364;28;20438;-76
2021/01/23 02:43:10;;;;;;;;;;;1.30;99.90;;;;;;5073917;28;19964;-76
2021/01/23 02:45:35;;;;;;;;;;;1.30;99.90;;;;;;5073499;28;19923;-76
2021/01/23 02:48:02;;;;;;;;;;;1.30;99.90;;;;;;5074728;28;19915;-76
2021/01/23 02:50:28;;;;;;;;;;;1.30;99.90;;;;;;5075021;28;20022;-76
2021/01/23 02:53:22;;;;;;;;;;;1.30;99.90;;;;;;5074953;28;19908;-76
2021/01/23 02:55:50;;;;;;;;;;;1.30;99.90;;;;;;5064779;28;19963;-76
2021/01/23 02:58:21;;;;;;;;;;;1.20;99.90;;;;;;5073327;28;19942;-76
2021/01/23 03:00:47;;;;;;;;;;;1.20;99.90;;;;;;5094263;28;20369;-76
2021/01/23 03:03:13;;;;;;;;;;;1.20;99.90;;;;;;5094037;28;19908;-76
2021/01/23 03:05:39;;;;;;;;;;;1.20;99.90;;;;;;5093752;28;19935;-76
2021/01/23 03:08:04;;;;;;;;;;;1.10;99.90;;;;;;5087477;28;20431;-76
2021/01/23 03:10:37;;;;;;;;;;;1.20;99.90;;;;;;5088156;28;20365;-75
2021/01/23 03:13:03;;;;;;;;;;;1.20;99.90;;;;;;5093747;28;19908;-75
2021/01/23 03:15:29;;;;;;;;;;;1.20;99.90;;;;;;5093862;28;19912;-75
2021/01/23 03:17:54;;;;;;;;;;;1.20;99.90;;;;;;5092293;28;20331;-75
2021/01/23 03:20:20;;;;;;;;;;;1.20;99.90;;;;;;5093798;28;19919;-76
2021/01/23 03:22:45;;;;;;;;;;;1.20;99.90;;;;;;5092420;28;19908;-76
2021/01/23 03:25:11;;;;;;;;;;;1.20;99.90;;;;;;5092489;28;19950;-76
2021/01/23 03:27:36;;;;;;;;;;;1.20;99.90;;;;;;5093089;28;20384;-76
2021/01/23 03:30:03;;;;;;;;;;;1.20;99.90;;;;;;5093518;28;19908;-76
2021/01/23 03:32:29;;;;;;;;;;;1.10;99.90;;;;;;5092314;28;19915;-76
2021/01/23 03:34:54;;;;;;;;;;;1.10;99.90;;;;;;5092274;28;20386;-76
2021/01/23 03:37:20;;;;;;;;;;;1.10;99.90;;;;;;5092211;28;19912;-76
2021/01/23 03:39:45;;;;;;;;;;;1.10;99.90;;;;;;5078519;28;19908;-76
2021/01/23 03:42:10;;;;;;;;;;;1.10;99.90;;;;;;5089858;28;20276;-76
2021/01/23 03:44:36;;;;;;;;;;;1.10;99.90;;;;;;5093137;28;20376;-76
2021/01/23 03:47:01;;;;;;;;;;;1.10;99.90;;;;;;5093060;28;19908;-76
2021/01/23 03:49:27;;;;;;;;;;;1.10;99.90;;;;;;5093337;28;19915;-76
2021/01/23 03:51:52;;;;;;;;;;;1.20;99.90;;;;;;5093173;28;19912;-76
2021/01/23 03:54:18;;;;;;;;;;;1.10;99.90;;;;;;5084353;28;19915;-76
2021/01/23 03:56:43;;;;;;;;;;;1.10;99.90;;;;;;5073129;28;20332;-76
2021/01/23 03:59:09;;;;;;;;;;;1.10;99.90;;;;;;5072208;28;19915;-76
2021/01/23 04:01:34;;;;;;;;;;;1.10;99.90;;;;;;5075164;28;19908;-76
2021/01/23 04:03:59;;;;;;;;;;;1.10;99.90;;;;;;5077113;28;19922;-76
2021/01/23 04:06:25;;;;;;;;;;;1.20;99.90;;;;;;5072993;28;19919;-76
2021/01/23 04:08:50;;;;;;;;;;;1.20;99.90;;;;;;5083016;28;19933;-76
2021/01/23 04:11:16;;;;;;;;;;;1.20;99.90;;;;;;5076930;28;19908;-76
2021/01/23 04:13:41;;;;;;;;;;;1.20;99.90;;;;;;5072453;28;19963;-76
2021/01/23 04:16:07;;;;;;;;;;;1.30;99.90;;;;;;5078305;28;19909;-76
2021/01/23 04:18:32;;;;;;;;;;;1.20;99.90;;;;;;5092658;28;20026;-76
2021/01/23 04:20:58;;;;;;;;;;;1.20;99.90;;;;;;5073153;28;19912;-76
2021/01/23 04:23:23;;;;;;;;;;;1.20;99.90;;;;;;5073235;28;19950;-76
2021/01/23 04:25:49;;;;;;;;;;;1.20;99.90;;;;;;5072635;28;20365;-76
2021/01/23 04:28:15;;;;;;;;;;;1.30;99.90;;;;;;5072981;28;19952;-76
2021/01/23 04:30:43;;;;;;;;;;;1.30;99.90;;;;;;5072942;28;19920;-76
2021/01/23 04:33:09;;;;;;;;;;;1.30;99.90;;;;;;5078581;28;19962;-75
2021/01/23 04:35:34;;;;;;;;;;;1.30;99.90;;;;;;5072827;28;19909;-76
2021/01/23 04:38:00;;;;;;;;;;;1.30;99.90;;;;;;5073742;28;20281;-76
2021/01/23 04:40:27;;;;;;;;;;;1.30;99.90;;;;;;5090847;28;19908;-76
2021/01/23 04:42:52;;;;;;;;;;;1.30;99.90;;;;;;5074153;28;19908;-76
2021/01/23 04:45:18;;;;;;;;;;;1.30;99.90;;;;;;5090704;28;20383;-75
2021/01/23 04:47:43;;;;;;;;;;;1.30;99.90;;;;;;5091844;28;19908;-75
2021/01/23 04:50:09;;;;;;;;;;;1.30;99.90;;;;;;5092064;28;19939;-75
2021/01/23 04:52:39;;;;;;;;;;;1.30;99.90;;;;;;5092060;28;20262;-75
2021/01/23 04:55:05;;;;;;;;;;;1.20;99.90;;;;;;5091862;28;20391;-75
2021/01/23 04:57:30;;;;;;;;;;;1.20;99.90;;;;;;5090949;28;19950;-75
2021/01/23 04:59:56;;;;;;;;;;;1.20;99.90;;;;;;5091772;28;19908;-75
2021/01/23 05:02:22;;;;;;;;;;;1.20;99.90;;;;;;5091965;28;19908;-75
2021/01/23 05:04:48;;;;;;;;;;;1.20;99.90;;;;;;5091716;28;19920;-75
2021/01/23 05:07:24;;;;;;;;;;;1.20;99.90;;;;;;5087173;28;19990;-75
2021/01/23 05:09:50;;;;;;;;;;;1.20;99.90;;;;;;5074692;28;19994;-75
2021/01/23 05:12:34;;;;;;;;;;;1.20;99.90;;;;;;5077937;28;19952;-75
2021/01/23 05:15:00;;;;;;;;;;;1.30;99.90;;;;;;5085272;28;19919;-75
2021/01/23 05:17:25;;;;;;;;;;;1.20;99.90;;;;;;5091227;28;20369;-75
2021/01/23 05:19:51;;;;;;;;;;;1.20;99.90;;;;;;5091409;28;19908;-75
2021/01/23 05:22:16;;;;;;;;;;;1.20;99.90;;;;;;5091255;28;19908;-75
2021/01/23 05:24:47;;;;;;;;;;;1.20;99.90;;;;;;5091246;28;19919;-75
2021/01/23 05:27:12;;;;;;;;;;;1.20;99.90;;;;;;5089661;28;20015;-74
2021/01/23 05:29:52;;;;;;;;;;;1.20;99.90;;;;;;5091278;28;19953;-74
2021/01/23 05:32:17;;;;;;;;;;;1.10;99.90;;;;;;5090104;28;20302;-75
2021/01/23 05:34:43;;;;;;;;;;;1.10;99.90;;;;;;5091147;28;19908;-74
2021/01/23 05:37:08;;;;;;;;;;;1.10;99.90;;;;;;5090615;28;19908;-75
2021/01/23 05:39:50;;;;;;;;;;;1.10;99.90;;;;;;5088290;28;20281;-74
2021/01/23 05:42:16;;;;;;;;;;;1.10;99.90;;;;;;5081713;28;19915;-74
2021/01/23 05:44:41;;;;;;;;;;;1.10;99.90;;;;;;5091109;28;20011;-74
2021/01/23 05:47:23;;;;;;;;;;;1.10;99.90;;;;;;5090860;28;20414;-74
2021/01/23 05:49:50;;;;;;;;;;;1.10;99.90;;;;;;5089590;28;19915;-74
2021/01/23 05:52:15;;;;;;;;;;;1.00;99.90;;;;;;5090903;28;19951;-75
2021/01/23 05:54:41;;;;;;;;;;;1.00;99.90;;;;;;5074746;28;19948;-74
2021/01/23 05:57:07;;;;;;;;;;;1.00;99.90;;;;;;5071206;28;19913;-74
2021/01/23 05:59:33;;;;;;;;;;;1.00;99.90;;;;;;5071275;28;19910;-75
2021/01/23 06:01:58;;;;;;;;;;;1.00;99.90;;;;;;5071558;28;19916;-75
2021/01/23 06:04:24;;;;;;;;;;;1.00;99.90;;;;;;5071566;28;19909;-75
2021/01/23 06:06:50;;;;;;;;;;;1.00;99.90;;;;;;5070973;28;19920;-74
2021/01/23 06:09:34;;;;;;;;;;;1.00;99.90;;;;;;5078979;28;20015;-75
2021/01/23 06:12:00;;;;;;;;;;;1.00;99.90;;;;;;5076956;28;19967;-75
2021/01/23 06:14:38;;;;;;;;;;;1.00;99.90;;;;;;5074782;28;19956;-75
2021/01/23 06:17:04;;;;;;;;;;;1.00;99.90;;;;;;5072053;28;20406;-75
2021/01/23 06:19:29;;;;;;;;;;;0.90;99.90;;;;;;5071288;28;19909;-74
2021/01/23 06:21:55;;;;;;;;;;;0.90;99.90;;;;;;5083344;28;19947;-75
2021/01/23 06:24:32;;;;;;;;;;;0.90;99.90;;;;;;5078988;28;19913;-74
2021/01/23 06:26:59;;;;;;;;;;;0.90;99.90;;;;;;5077340;28;19908;-74
2021/01/23 06:29:31;;;;;;;;;;;0.90;99.90;;;;;;5084104;28;19915;-74
2021/01/23 06:31:56;;;;;;;;;;;1.00;99.90;;;;;;5089370;28;20373;-74
2021/01/23 06:34:22;;;;;;;;;;;1.00;99.90;;;;;;5078141;28;19915;-75
2021/01/23 06:36:48;;;;;;;;;;;1.00;99.90;;;;;;5077588;28;19919;-74
2021/01/23 06:39:13;;;;;;;;;;;1.00;99.90;;;;;;5081895;28;20018;-74
2021/01/23 06:41:39;;;;;;;;;;;0.90;99.90;;;;;;5091179;28;19908;-74
2021/01/23 06:44:11;;;;;;;;;;;0.90;99.90;;;;;;5078280;28;19909;-74
2021/01/23 06:46:38;;;;;;;;;;;0.90;99.90;;;;;;5077364;28;19975;-74
2021/01/23 06:49:14;;;;;;;;;;;0.90;99.90;;;;;;5084153;28;19931;-74
2021/01/23 06:51:40;;;;;;;;;;;0.90;99.90;;;;;;5078784;28;19909;-74
2021/01/23 06:54:09;;;;;;;;;;;0.90;99.90;;;;;;5090662;28;19947;-74
2021/01/23 06:56:35;;;;;;;;;;;0.90;99.90;;;;;;5089601;28;19916;-74
2021/01/23 06:59:00;;;;;;;;;;;0.90;99.90;;;;;;5070885;28;20302;-74
2021/01/23 07:01:26;;;;;;;;;;;0.80;99.90;;;;;;5078010;28;20638;-74
2021/01/23 07:03:51;;;;;;;;;;;0.80;99.90;;;;;;5084487;28;19915;-74
2021/01/23 07:06:27;;;;;;;;;;;0.80;99.90;;;;;;5089957;28;20288;-74
2021/01/23 07:08:53;;;;;;;;;;;0.80;99.90;;;;;;5084485;28;20018;-74
2021/01/23 07:11:18;;;;;;;;;;;0.80;99.90;;;;;;5084238;28;20344;-74
2021/01/23 07:13:57;;;;;;;;;;;0.80;99.90;;;;;;5077710;28;19908;-74
2021/01/23 07:16:23;;;;;;;;;;;0.80;99.90;;;;;;5082985;28;20264;-74
2021/01/23 07:18:55;;;;;;;;;;;0.70;99.90;;;;;;5077832;28;20384;-74
2021/01/23 07:21:22;;;;;;;;;;;0.70;99.90;;;;;;5081368;28;19923;-74
2021/01/23 07:23:47;;;;;;;;;;;0.80;99.90;;;;;;5090497;28;19912;-74
2021/01/23 07:26:14;;;;;;;;;;;0.80;99.90;;;;;;5084402;28;20364;-74
2021/01/23 07:28:43;;;;;;;;;;;0.80;99.90;;;;;;5087371;28;19914;-74
2021/01/23 07:31:24;;;;;;;;;;;0.80;99.90;;;;;;5080826;28;20054;-74
2021/01/23 07:33:50;;;;;;;;;;;0.80;99.90;;;;;;5087512;28;19969;-74
2021/01/23 07:36:26;;;;;;;;;;;0.80;99.90;;;;;;5084420;28;20311;-74
2021/01/23 07:38:52;;;;;;;;;;;0.80;99.90;;;;;;5085726;28;20376;-74
2021/01/23 07:41:18;;;;;;;;;;;0.80;99.90;;;;;;5083387;28;19908;-74
2021/01/23 07:43:43;;;;;;;;;;;0.80;99.90;;;;;;5080960;28;20327;-74
2021/01/23 07:46:08;;;;;;;;;;;0.80;99.90;;;;;;5080236;28;19963;-75
2021/01/23 07:48:43;;;;;;;;;;;0.90;99.90;;;;;;5083822;28;20311;-74
2021/01/23 07:51:21;;;;;;;;;;;0.90;99.90;;;;;;5093576;28;20341;-74
2021/01/23 07:54:01;;;;;;;;;;;0.90;99.90;;;;;;5080145;28;19908;-74
2021/01/23 07:56:27;;;;;;;;;;;0.90;99.90;;;;;;5093319;28;19908;-74
2021/01/23 07:58:52;;;;;;;;;;;1.00;99.90;;;;;;5092357;28;20002;-74
2021/01/23 08:01:18;;;;;;;;;;;1.00;99.90;;;;;;5086705;28;19912;-74
2021/01/23 08:03:43;;;;;;;;;;;1.00;99.90;;;;;;5086697;28;19909;-75
2021/01/23 08:06:18;;;;;;;;;;;1.00;99.90;;;;;;5086032;28;19912;-74
2021/01/23 08:08:44;;;;;;;;;;;1.10;99.90;;;;;;5094560;28;19950;-75
2021/01/23 08:11:29;;;;;;;;;;;1.10;99.90;;;;;;5086479;28;19948;-74
2021/01/23 08:14:05;;;;;;;;;;;1.20;99.90;;;;;;5093178;28;19915;-75
2021/01/23 08:16:30;;;;;;;;;;;1.20;99.90;;;;;;5079332;28;20327;-75
2021/01/23 08:19:06;;;;;;;;;;;1.30;99.90;;;;;;5080964;28;19908;-75
2021/01/23 08:21:31;;;;;;;;;;;1.30;99.90;;;;;;5079898;28;19916;-75
2021/01/23 08:23:57;;;;;;;;;;;1.40;99.90;;;;;;5079881;28;19908;-75
2021/01/23 08:26:35;;;;;;;;;;;1.50;99.90;;;;;;5089908;28;19916;-74
2021/01/23 08:29:00;;;;;;;;;;;1.60;99.90;;;;;;5080501;28;19912;-75
2021/01/23 08:31:26;;;;;;;;;;;1.70;99.90;;;;;;5078996;28;20423;-75
2021/01/23 08:33:54;;;;;;;;;;;1.70;99.90;;;;;;5081035;28;20361;-75
2021/01/23 08:36:20;;;;;;;;;;;1.80;99.90;;;;;;5081809;28;20004;-75
2021/01/23 08:38:46;;;;;;;;;;;1.90;99.90;;;;;;5085192;28;19940;-75
2021/01/23 08:41:11;;;;;;;;;;;1.90;99.90;;;;;;5085848;28;20007;-75
2021/01/23 08:43:37;;;;;;;;;;;1.90;99.90;;;;;;5082861;28;19954;-75
2021/01/23 08:46:02;;;;;;;;;;;2.00;99.90;;;;;;5079177;28;19993;-74
2021/01/23 08:48:28;;;;;;;;;;;2.10;99.90;;;;;;5078583;28;20353;-75
2021/01/23 08:50:53;;;;;;;;;;;2.10;99.90;;;;;;5085515;28;20004;-75
2021/01/23 08:53:19;;;;;;;;;;;2.20;99.90;;;;;;5072814;28;19908;-74
2021/01/23 08:55:44;;;;;;;;;;;2.30;99.90;;;;;;5082872;28;19919;-75
2021/01/23 08:58:10;;;;;;;;;;;2.30;99.90;;;;;;5084062;28;19916;-75
2021/01/23 09:00:35;;;;;;;;;;;2.40;99.90;;;;;;5085445;28;19916;-75
2021/01/23 09:03:02;;;;;;;;;;;2.50;99.90;;;;;;5085564;28;19908;-75
2021/01/23 09:05:28;;;;;;;;;;;2.50;99.90;;;;;;5078809;28;19927;-75
2021/01/23 09:07:53;;;;;;;;;;;2.50;99.90;;;;;;5086924;28;19908;-75
2021/01/23 09:10:20;;;;;;;;;;;2.50;99.90;;;;;;5086184;28;19908;-75
2021/01/23 09:12:46;;;;;;;;;;;2.50;99.90;;;;;;5092348;28;20010;-75
2021/01/23 09:15:12;;;;;;;;;;;2.60;99.90;;;;;;5076122;28;19908;-75
2021/01/23 09:17:39;;;;;;;;;;;2.70;99.90;;;;;;5081039;28;19920;-75
2021/01/23 09:20:07;;;;;;;;;;;2.80;99.90;;;;;;5075534;28;19953;-75
2021/01/23 09:22:32;;;;;;;;;;;2.90;99.90;;;;;;5091769;28;19908;-75
2021/01/23 09:24:59;;;;;;;;;;;3.00;99.90;;;;;;5075298;28;19917;-75
2021/01/23 09:27:25;;;;;;;;;;;3.20;99.90;;;;;;5078349;28;19927;-75
2021/01/23 09:29:50;;;;;;;;;;;3.20;99.90;;;;;;5081317;28;19927;-75
2021/01/23 09:32:17;;;;;;;;;;;3.40;99.90;;;;;;5091421;28;20382;-75
2021/01/23 09:34:43;;;;;;;;;;;3.50;99.90;;;;;;5091071;28;20333;-75
2021/01/23 09:37:08;;;;;;;;;;;3.80;99.90;;;;;;5090805;28;19908;-76
2021/01/23 09:39:34;;;;;;;;;;;4.00;99.90;;;;;;5077938;28;19912;-76
2021/01/23 09:41:59;;;;;;;;;;;4.30;99.90;;;;;;5077402;28;19908;-76
2021/01/23 09:44:25;;;;;;;;;;;4.50;99.90;;;;;;5070430;28;20426;-75
2021/01/23 09:46:51;;;;;;;;;;;4.70;99.90;;;;;;5071267;28;19920;-76
2021/01/23 09:49:16;;;;;;;;;;;4.90;99.90;;;;;;5071556;28;19916;-77
2021/01/23 09:51:42;;;;;;;;;;;5.00;99.90;;;;;;5071636;28;20003;-77
2021/01/23 09:54:08;;;;;;;;;;;5.10;99.90;;;;;;5071759;28;20284;-77
2021/01/23 09:56:33;;;;;;;;;;;5.20;99.90;;;;;;5071294;28;19908;-76
2021/01/23 09:58:58;;;;;;;;;;;5.20;99.90;;;;;;5071598;28;19962;-76
2021/01/23 10:01:24;;;;;;;;;;;5.20;99.90;;;;;;5071524;28;19908;-76
2021/01/23 10:03:49;;;;;;;;;;;5.20;99.90;;;;;;5071425;28;19909;-76
2021/01/23 10:06:15;;;;;;;;;;;5.20;99.90;;;;;;5071201;28;20015;-76
2021/01/23 10:08:40;;;;;;;;;;;5.10;99.90;;;;;;5081568;28;20419;-76
2021/01/23 10:11:06;;;;;;;;;;;5.10;99.90;;;;;;5075163;28;19909;-76
2021/01/23 10:13:31;;;;;;;;;;;5.00;99.90;;;;;;5071389;28;20390;-76
2021/01/23 10:15:57;;;;;;;;;;;4.90;99.90;;;;;;5071013;28;19908;-75
2021/01/23 10:18:22;;;;;;;;;;;4.80;99.90;;;;;;5071260;28;20495;-76
2021/01/23 10:20:48;;;;;;;;;;;4.70;99.90;;;;;;5071358;28;19909;-76
2021/01/23 10:23:13;;;;;;;;;;;4.70;99.90;;;;;;5071328;28;19916;-76
2021/01/23 10:25:39;;;;;;;;;;;4.80;99.90;;;;;;5070974;28;19912;-76
2021/01/23 10:28:04;;;;;;;;;;;4.80;99.90;;;;;;5071224;28;19908;-76
2021/01/23 10:30:30;;;;;;;;;;;4.80;99.90;;;;;;5070945;28;19925;-76
2021/01/23 10:32:55;;;;;;;;;;;4.90;99.90;;;;;;5071213;28;20389;-76
2021/01/23 10:35:21;;;;;;;;;;;4.90;99.90;;;;;;5071170;28;19908;-76
2021/01/23 10:37:47;;;;;;;;;;;4.90;99.90;;;;;;5072337;28;20300;-76
2021/01/23 10:40:12;;;;;;;;;;;4.90;99.90;;;;;;5083994;28;19908;-76
2021/01/23 10:42:38;;;;;;;;;;;4.90;99.90;;;;;;5074989;28;20434;-76
2021/01/23 10:45:04;;;;;;;;;;;5.00;99.90;;;;;;5069563;28;19919;-77
2021/01/23 10:47:30;;;;;;;;;;;5.00;99.90;;;;;;5070473;28;19916;-76
2021/01/23 10:49:55;;;;;;;;;;;5.10;99.90;;;;;;5070974;28;20270;-76
2021/01/23 10:52:21;;;;;;;;;;;5.20;99.90;;;;;;5070958;28;19909;-75
2021/01/23 10:54:46;;;;;;;;;;;5.30;99.90;;;;;;5073218;28;19909;-76
2021/01/23 10:57:12;;;;;;;;;;;5.30;99.90;;;;;;5074778;28;19962;-76
2021/01/23 10:59:37;;;;;;;;;;;5.40;99.90;;;;;;5074787;28;20169;-76
2021/01/23 11:02:03;;;;;;;;;;;5.50;99.90;;;;;;5089281;28;19962;-76
2021/01/23 11:04:28;;;;;;;;;;;5.40;99.90;;;;;;5094323;28;20425;-76
2021/01/23 11:06:54;;;;;;;;;;;5.40;99.90;;;;;;5094143;28;19908;-75
2021/01/23 11:09:19;;;;;;;;;;;5.30;99.90;;;;;;5083724;28;19973;-76
2021/01/23 11:11:45;;;;;;;;;;;5.40;99.90;;;;;;5080827;28;19909;-76
2021/01/23 11:14:10;;;;;;;;;;;5.30;99.90;;;;;;5094428;28;20284;-75
2021/01/23 11:16:35;;;;;;;;;;;5.30;99.90;;;;;;5094347;28;19919;-75
2021/01/23 11:19:01;;;;;;;;;;;5.30;99.90;;;;;;5094152;28;20388;-76
2021/01/23 11:21:27;;;;;;;;;;;5.30;99.90;;;;;;5093933;28;19908;-76
2021/01/23 11:23:52;;;;;;;;;;;5.40;99.90;;;;;;5093962;28;20422;-76
2021/01/23 11:26:18;;;;;;;;;;;5.50;99.90;;;;;;5093478;28;20177;-76
2021/01/23 11:28:43;;;;;;;;;;;5.70;99.90;;;;;;5093664;28;19908;-76
2021/01/23 11:31:09;;;;;;;;;;;5.90;99.90;;;;;;5093165;28;19969;-75
2021/01/23 11:33:35;;;;;;;;;;;6.10;99.90;;;;;;5093642;28;19908;-75
2021/01/23 11:36:01;;;;;;;;;;;6.10;99.90;;;;;;5074698;28;19974;-75
2021/01/23 11:38:26;;;;;;;;;;;6.10;99.90;;;;;;5082275;28;19915;-75
2021/01/23 11:40:52;;;;;;;;;;;6.00;99.90;;;;;;5079654;28;20341;-75
2021/01/23 11:43:17;;;;;;;;;;;5.90;99.90;;;;;;5074136;28;19915;-75
2021/01/23 11:45:43;;;;;;;;;;;5.80;99.90;;;;;;5074874;28;19970;-75
2021/01/23 11:48:08;;;;;;;;;;;5.70;99.90;;;;;;5076842;28;19930;-75
2021/01/23 11:50:34;;;;;;;;;;;5.50;99.90;;;;;;5093268;28;19918;-75
2021/01/23 11:52:59;;;;;;;;;;;5.30;99.90;;;;;;5093384;28;20471;-75
2021/01/23 11:55:25;;;;;;;;;;;5.20;99.90;;;;;;5093218;28;19909;-75
2021/01/23 11:57:50;;;;;;;;;;;5.10;99.90;;;;;;5092867;28;19926;-76
2021/01/23 12:00:16;;;;;;;;;;;5.00;99.90;;;;;;5078332;28;19919;-76
2021/01/23 12:02:42;;;;;;;;;;;4.90;99.90;;;;;;5080317;28;19929;-76
2021/01/23 12:05:08;;;;;;;;;;;4.90;99.90;;;;;;5073514;28;20353;-76
2021/01/23 12:07:33;;;;;;;;;;;4.80;99.90;;;;;;5078945;28;20517;-76
2021/01/23 12:09:59;;;;;;;;;;;4.90;99.90;;;;;;5085956;28;19951;-76
2021/01/23 12:12:24;;;;;;;;;;;4.90;99.90;;;;;;5084735;28;20350;-76
2021/01/23 12:14:50;;;;;;;;;;;4.90;99.90;;;;;;5083048;28;19959;-77
2021/01/23 12:17:16;;;;;;;;;;;4.80;99.90;;;;;;5082126;28;19927;-76
2021/01/23 12:19:42;;;;;;;;;;;4.90;99.90;;;;;;5081704;28;20362;-76
2021/01/23 12:22:09;;;;;;;;;;;5.00;99.90;;;;;;5083036;28;19908;-78
2021/01/23 12:24:34;;;;;;;;;;;5.00;99.90;;;;;;5080028;28;19908;-77
2021/01/23 12:27:00;;;;;;;;;;;5.10;99.90;;;;;;5079094;28;19928;-79
2021/01/23 12:29:26;;;;;;;;;;;5.10;99.90;;;;;;5085285;28;19912;-77
2021/01/23 12:31:52;;;;;;;;;;;5.20;99.90;;;;;;5081577;28;20385;-77
2021/01/23 12:34:18;;;;;;;;;;;5.20;99.90;;;;;;5080991;28;20065;-75
2021/01/23 12:36:43;;;;;;;;;;;5.20;99.90;;;;;;5084648;28;20401;-76
2021/01/23 12:39:09;;;;;;;;;;;5.20;99.90;;;;;;5090816;28;20422;-76
2021/01/23 12:41:34;;;;;;;;;;;5.20;99.90;;;;;;5085088;28;19915;-76
2021/01/23 12:44:00;;;;;;;;;;;5.20;99.90;;;;;;5089725;28;20063;-76
2021/01/23 12:46:25;;;;;;;;;;;5.20;99.90;;;;;;5085934;28;19912;-75
2021/01/23 12:48:51;;;;;;;;;;;5.10;99.90;;;;;;5072881;28;19962;-75
2021/01/23 12:51:17;;;;;;;;;;;5.10;99.90;;;;;;5072915;28;20369;-77
2021/01/23 12:53:43;;;;;;;;;;;5.00;99.90;;;;;;5076525;28;20029;-78
2021/01/23 12:56:09;;;;;;;;;;;5.00;99.90;;;;;;5085589;28;19931;-75
2021/01/23 12:58:34;;;;;;;;;;;5.00;99.90;;;;;;5085261;28;19912;-74
2021/01/23 13:01:00;;;;;;;;;;;5.10;99.90;;;;;;5082542;28;19912;-75
2021/01/23 13:03:25;;;;;;;;;;;5.10;99.90;;;;;;5083787;28;19916;-75
2021/01/23 13:05:51;;;;;;;;;;;5.10;99.90;;;;;;5086413;28;19919;-78
2021/01/23 13:08:17;;;;;;;;;;;5.10;99.90;;;;;;5090582;28;20484;-75
2021/01/23 13:10:42;;;;;;;;;;;5.10;99.90;;;;;;5086589;28;19908;-74
2021/01/23 13:13:08;;;;;;;;;;;5.00;99.90;;;;;;5080330;28;19912;-75
2021/01/23 13:15:33;;;;;;;;;;;5.10;99.90;;;;;;5082986;28;19908;-76
2021/01/23 13:17:59;;;;;;;;;;;5.10;99.90;;;;;;5076852;28;19915;-75
2021/01/23 13:20:24;;;;;;;;;;;5.10;99.90;;;;;;5072643;28;20022;-74
2021/01/23 13:22:50;;;;;;;;;;;5.10;99.90;;;;;;5071828;28;19916;-75
2021/01/23 13:25:15;;;;;;;;;;;5.10;99.90;;;;;;5071995;28;19916;-78
2021/01/23 13:27:41;;;;;;;;;;;5.20;99.90;;;;;;5071461;28;19908;-75
2021/01/23 13:30:07;;;;;;;;;;;5.20;99.90;;;;;;5072761;28;19915;-75
2021/01/23 13:32:33;;;;;;;;;;;5.20;99.90;;;;;;5072994;28;19999;-75
2021/01/23 13:34:58;;;;;;;;;;;5.20;99.90;;;;;;5072356;28;20352;-74
2021/01/23 13:37:24;;;;;;;;;;;5.20;99.90;;;;;;5080156;28;20259;-77
2021/01/23 13:39:49;;;;;;;;;;;5.10;99.90;;;;;;5077167;28;19960;-74
2021/01/23 13:42:15;;;;;;;;;;;5.00;99.90;;;;;;5076114;28;19998;-75
2021/01/23 13:44:40;;;;;;;;;;;5.00;99.90;;;;;;5077813;28;19919;-75
2021/01/23 13:47:06;;;;;;;;;;;5.00;99.90;;;;;;5090996;28;19908;-80
2021/01/23 13:49:31;;;;;;;;;;;4.90;99.90;;;;;;5079464;28;20362;-75
2021/01/23 13:51:58;;;;;;;;;;;4.90;99.90;;;;;;5071910;28;19908;-75
2021/01/23 13:54:23;;;;;;;;;;;4.90;99.90;;;;;;5071958;28;20254;-74
2021/01/23 13:56:49;;;;;;;;;;;4.80;99.90;;;;;;5071496;28;19916;-74
2021/01/23 13:59:14;;;;;;;;;;;4.80;99.90;;;;;;5071621;28;20345;-77
2021/01/23 14:01:40;;;;;;;;;;;4.70;99.90;;;;;;5071768;28;19913;-75
2021/01/23 14:04:05;;;;;;;;;;;4.70;99.90;;;;;;5071867;28;19947;-75
2021/01/23 14:06:31;;;;;;;;;;;4.60;99.90;;;;;;5071763;28;19916;-75
2021/01/23 14:08:56;;;;;;;;;;;4.60;99.90;;;;;;5076406;28;19913;-75
2021/01/23 14:11:22;;;;;;;;;;;4.50;99.90;;;;;;5079504;28;20003;-74
2021/01/23 14:13:47;;;;;;;;;;;4.50;99.90;;;;;;5071952;28;19915;-75
2021/01/23 14:16:15;;;;;;;;;;;4.40;99.90;;;;;;5077715;28;19954;-75
2021/01/23 14:18:40;;;;;;;;;;;4.30;99.90;;;;;;5084825;28;19924;-79
2021/01/23 14:21:06;;;;;;;;;;;4.30;99.90;;;;;;5070473;28;19924;-74
2021/01/23 14:23:32;;;;;;;;;;;4.30;99.90;;;;;;5071770;28;20281;-75
2021/01/23 14:25:57;;;;;;;;;;;4.20;99.90;;;;;;5070997;28;19927;-75
2021/01/23 14:28:23;;;;;;;;;;;4.20;99.90;;;;;;5071385;28;19908;-79